Terminal Aerodrome Forecast
Issued by NWS

Current Version | Previous Version | Text Only | Print | Product List | Glossary Off
Versions: 1 2 3 4 5 6 7 8 9 10 11 12 13 14 15 16 17 18 19 20 21 22

000
FTUS41 KPBZ 180500
TAFHLG
TAF
KHLG 180532Z 1806/1906 VRB03KT 1 1/2SM BR SCT002 OVC050
      TEMPO 1806/1810 1/2SM FG BKN002
     FM181000 VRB03KT 4SM BR BKN060
     FM181300 VRB04KT P6SM OVC050
     FM181800 03005KT P6SM BKN100=

USA.gov is the U.S. government's official web portal to all federal, state and local government web resources and services.